Time,TemperatureF,DewpointF,PressureIn,WindDirection,WindDirectionDegrees,WindSpeedMPH,WindSpeedGustMPH,Humidity,HourlyPrecipIn,Conditions,Clouds,dailyrainin,SoftwareType,DateUTC
2013-01-19 00:00:00,18.1,16.7,30.50,SW,235,1.0,3.0,94,0.00,,---,0.29,VWS V14.00,2013-01-19 05:00:00,
2013-01-19 00:01:00,18.1,16.7,30.50,SW,235,1.0,3.0,94,0.00,,---,0.00,VWS V14.00,2013-01-19 05:01:00,
2013-01-19 00:03:00,18.2,16.8,30.50,SW,235,0.0,1.0,94,0.00,,---,0.00,VWS V14.00,2013-01-19 05:03:00,
2013-01-19 00:04:00,18.2,16.8,30.50,SW,235,1.0,2.0,94,0.00,,---,0.00,VWS V14.00,2013-01-19 05:04:00,
2013-01-19 00:09:00,18.3,16.9,30.50,SW,235,0.0,2.0,94,0.00,,---,0.00,VWS V14.00,2013-01-19 05:09:00,
2013-01-19 00:14:00,18.3,16.9,30.50,SW,235,0.0,2.0,94,0.00,,---,0.00,VWS V14.00,2013-01-19 05:14:00,
2013-01-19 00:19:00,18.5,17.1,30.50,SW,235,2.0,2.0,94,0.00,,---,0.00,VWS V14.00,2013-01-19 05:19:00,
2013-01-19 00:24:00,18.4,17.0,30.50,SW,236,1.0,4.0,94,0.00,,---,0.00,VWS V14.00,2013-01-19 05:24:00,
2013-01-19 00:30:00,18.6,17.2,30.50,SW,236,0.0,4.0,94,0.00,,---,0.00,VWS V14.00,2013-01-19 05:30:00,
2013-01-19 00:35:00,18.4,17.0,30.50,WSW,237,1.0,2.0,94,0.00,,---,0.00,VWS V14.00,2013-01-19 05:35:00,
2013-01-19 00:40:00,18.4,17.0,30.50,WSW,237,0.0,2.0,94,0.00,,---,0.00,VWS V14.00,2013-01-19 05:40:00,
2013-01-19 00:45:00,18.5,17.1,30.50,WSW,237,0.0,2.0,94,0.00,,---,0.00,VWS V14.00,2013-01-19 05:45:00,
2013-01-19 00:50:00,18.6,17.2,30.50,WSW,237,0.0,3.0,94,0.00,,---,0.00,VWS V14.00,2013-01-19 05:50:00,
2013-01-19 00:55:00,18.7,17.3,30.50,WSW,237,0.0,3.0,94,0.00,,---,0.00,VWS V14.00,2013-01-19 05:55:00,
2013-01-19 01:00:00,18.7,17.3,30.50,WSW,237,0.0,3.0,94,0.00,,---,0.00,VWS V14.00,2013-01-19 06:00:00,
2013-01-19 01:05:00,18.7,17.3,30.50,WSW,237,0.0,1.0,94,0.00,,---,0.00,VWS V14.00,2013-01-19 06:05:00,
2013-01-19 01:11:00,18.6,17.2,30.50,WSW,237,0.0,1.0,94,0.00,,---,0.00,VWS V14.00,2013-01-19 06:11:00,
2013-01-19 01:16:00,18.7,17.3,30.50,WSW,237,0.0,1.0,94,0.00,,---,0.00,VWS V14.00,2013-01-19 06:16:00,
2013-01-19 01:21:00,18.8,17.4,30.50,WSW,237,0.0,1.0,94,0.00,,---,0.00,VWS V14.00,2013-01-19 06:21:00,
2013-01-19 01:26:00,18.7,17.3,30.50,WSW,237,0.0,1.0,94,0.00,,---,0.00,VWS V14.00,2013-01-19 06:26:00,
2013-01-19 01:32:00,18.7,17.3,30.50,WSW,237,0.0,0.0,94,0.00,,---,0.00,VWS V14.00,2013-01-19 06:32:00,
2013-01-19 01:37:00,18.8,17.4,30.50,WSW,237,0.0,1.0,94,0.00,,---,0.00,VWS V14.00,2013-01-19 06:37:00,
2013-01-19 01:42:00,18.5,16.8,30.50,WSW,237,0.0,1.0,93,0.00,,---,0.00,VWS V14.00,2013-01-19 06:42:00,
2013-01-19 01:47:00,18.3,16.6,30.50,WSW,237,1.0,1.0,93,0.00,,---,0.00,VWS V14.00,2013-01-19 06:47:00,
2013-01-19 01:52:00,18.2,16.5,30.50,WSW,237,0.0,2.0,93,0.00,,---,0.00,VWS V14.00,2013-01-19 06:52:00,
2013-01-19 01:57:00,18.2,16.5,30.50,WSW,237,0.0,2.0,93,0.00,,---,0.00,VWS V14.00,2013-01-19 06:57:00,
2013-01-19 02:03:00,18.3,16.9,30.50,WSW,237,0.0,1.0,94,0.00,,---,0.00,VWS V14.00,2013-01-19 07:03:00,
2013-01-19 02:08:00,18.5,17.1,30.50,WSW,237,1.0,2.0,94,0.00,,---,0.00,VWS V14.00,2013-01-19 07:08:00,
2013-01-19 02:13:00,18.6,17.2,30.50,WSW,237,0.0,2.0,94,0.00,,---,0.00,VWS V14.00,2013-01-19 07:13:00,
2013-01-19 02:18:00,18.8,17.4,30.50,WSW,237,0.0,2.0,94,0.00,,---,0.00,VWS V14.00,2013-01-19 07:18:00,
2013-01-19 02:23:00,18.9,17.5,30.50,WSW,237,0.0,2.0,94,0.00,,---,0.00,VWS V14.00,2013-01-19 07:23:00,
2013-01-19 02:28:00,19.0,17.6,30.50,WSW,237,0.0,2.0,94,0.00,,---,0.00,VWS V14.00,2013-01-19 07:28:00,
2013-01-19 02:33:00,18.9,17.5,30.50,WSW,237,0.0,0.0,94,0.00,,---,0.00,VWS V14.00,2013-01-19 07:33:00,
2013-01-19 02:39:00,18.8,17.4,30.50,WSW,237,1.0,2.0,94,0.00,,---,0.00,VWS V14.00,2013-01-19 07:39:00,
2013-01-19 02:44:00,18.9,17.5,30.50,WSW,237,0.0,2.0,94,0.00,,---,0.00,VWS V14.00,2013-01-19 07:44:00,
2013-01-19 02:49:00,18.9,17.5,30.50,WSW,237,0.0,2.0,94,0.00,,---,0.00,VWS V14.00,2013-01-19 07:49:00,
2013-01-19 02:54:00,18.9,17.5,30.50,WSW,237,0.0,2.0,94,0.00,,---,0.00,VWS V14.00,2013-01-19 07:54:00,
2013-01-19 02:59:00,18.9,17.5,30.50,WSW,237,0.0,2.0,94,0.00,,---,0.00,VWS V14.00,2013-01-19 07:59:00,
2013-01-19 03:04:00,18.8,17.4,30.50,WSW,237,0.0,0.0,94,0.00,,---,0.00,VWS V14.00,2013-01-19 08:04:00,
2013-01-19 03:09:00,18.6,16.9,30.50,WSW,237,0.0,0.0,93,0.00,,---,0.00,VWS V14.00,2013-01-19 08:09:00,
2013-01-19 03:14:00,18.7,17.3,30.49,WSW,237,0.0,1.0,94,0.00,,---,0.00,VWS V14.00,2013-01-19 08:14:00,
2013-01-19 03:19:00,18.7,17.3,30.49,WSW,237,0.0,1.0,94,0.00,,---,0.00,VWS V14.00,2013-01-19 08:19:00,
2013-01-19 03:24:00,18.7,17.3,30.49,WSW,237,0.0,2.0,94,0.00,,---,0.00,VWS V14.00,2013-01-19 08:24:00,
2013-01-19 03:30:00,18.7,17.3,30.49,WSW,237,0.0,2.0,94,0.00,,---,0.00,VWS V14.00,2013-01-19 08:30:00,
2013-01-19 03:35:00,18.8,17.4,30.49,WSW,237,0.0,0.0,94,0.00,,---,0.00,VWS V14.00,2013-01-19 08:35:00,
2013-01-19 03:40:00,19.2,17.8,30.49,WSW,237,0.0,1.0,94,0.00,,---,0.00,VWS V14.00,2013-01-19 08:40:00,
2013-01-19 03:45:00,19.2,17.8,30.49,WSW,237,0.0,1.0,94,0.00,,---,0.00,VWS V14.00,2013-01-19 08:45:00,
2013-01-19 03:50:00,19.2,17.8,30.49,WSW,237,0.0,1.0,94,0.00,,---,0.00,VWS V14.00,2013-01-19 08:50:00,
2013-01-19 03:55:00,19.1,17.7,30.48,WSW,237,0.0,1.0,94,0.00,,---,0.00,VWS V14.00,2013-01-19 08:55:00,
2013-01-19 04:00:00,19.0,17.6,30.48,WSW,237,0.0,1.0,94,0.00,,---,0.00,VWS V14.00,2013-01-19 09:00:00,
2013-01-19 04:05:00,19.0,17.6,30.48,WSW,237,0.0,2.0,94,0.00,,---,0.00,VWS V14.00,2013-01-19 09:05:00,
2013-01-19 04:10:00,18.9,17.5,30.48,WSW,237,0.0,2.0,94,0.00,,---,0.00,VWS V14.00,2013-01-19 09:10:00,
2013-01-19 04:15:00,18.7,17.0,30.48,WSW,237,0.0,2.0,93,0.00,,---,0.00,VWS V14.00,2013-01-19 09:15:00,
2013-01-19 04:21:00,19.1,17.7,30.48,WSW,237,1.0,2.0,94,0.00,,---,0.00,VWS V14.00,2013-01-19 09:21:00,
2013-01-19 04:26:00,19.5,18.1,30.48,WSW,237,0.0,3.0,94,0.00,,---,0.00,VWS V14.00,2013-01-19 09:26:00,
2013-01-19 04:31:00,19.5,18.1,30.48,WSW,237,0.0,3.0,94,0.00,,---,0.00,VWS V14.00,2013-01-19 09:31:00,
2013-01-19 04:36:00,19.3,17.9,30.48,WSW,237,1.0,1.0,94,0.00,,---,0.00,VWS V14.00,2013-01-19 09:36:00,
2013-01-19 04:41:00,18.8,17.1,30.48,WSW,237,0.0,1.0,93,0.00,,---,0.00,VWS V14.00,2013-01-19 09:41:00,
2013-01-19 04:46:00,18.4,16.7,30.47,WSW,237,0.0,2.0,93,0.00,,---,0.00,VWS V14.00,2013-01-19 09:46:00,
2013-01-19 04:51:00,18.4,16.7,30.47,WSW,237,0.0,2.0,93,0.00,,---,0.00,VWS V14.00,2013-01-19 09:51:00,
2013-01-19 04:57:00,18.3,16.6,30.47,WSW,237,1.0,3.0,93,0.00,,---,0.00,VWS V14.00,2013-01-19 09:57:00,
2013-01-19 05:02:00,18.1,16.4,30.47,WSW,237,1.0,1.0,93,0.00,,---,0.00,VWS V14.00,2013-01-19 10:02:00,
2013-01-19 05:07:00,18.1,16.4,30.47,WSW,237,0.0,2.0,93,0.00,,---,0.00,VWS V14.00,2013-01-19 10:07:00,
2013-01-19 05:12:00,17.9,16.2,30.47,WSW,237,0.0,2.0,93,0.00,,---,0.00,VWS V14.00,2013-01-19 10:12:00,
2013-01-19 05:17:00,17.7,16.0,30.47,WSW,237,1.0,2.0,93,0.00,,---,0.00,VWS V14.00,2013-01-19 10:17:00,
2013-01-19 05:22:00,17.6,15.9,30.47,WSW,237,0.0,2.0,93,0.00,,---,0.00,VWS V14.00,2013-01-19 10:22:00,
2013-01-19 05:28:00,17.6,15.9,30.47,WSW,237,0.0,2.0,93,0.00,,---,0.00,VWS V14.00,2013-01-19 10:28:00,
2013-01-19 05:33:00,17.6,15.9,30.47,WSW,237,2.0,2.0,93,0.00,,---,0.00,VWS V14.00,2013-01-19 10:33:00,
2013-01-19 05:38:00,17.6,15.9,30.47,WSW,237,0.0,2.0,93,0.00,,---,0.00,VWS V14.00,2013-01-19 10:38:00,
2013-01-19 05:43:00,17.5,15.8,30.47,WSW,237,0.0,2.0,93,0.00,,---,0.00,VWS V14.00,2013-01-19 10:43:00,
2013-01-19 05:48:00,17.7,16.3,30.47,WSW,237,2.0,3.0,94,0.00,,---,0.00,VWS V14.00,2013-01-19 10:48:00,
2013-01-19 05:54:00,17.9,16.5,30.47,WSW,238,0.0,3.0,94,0.00,,---,0.00,VWS V14.00,2013-01-19 10:54:00,
2013-01-19 05:59:00,17.7,16.0,30.47,WSW,237,1.0,3.0,93,0.00,,---,0.00,VWS V14.00,2013-01-19 10:59:00,
2013-01-19 06:04:00,17.6,15.9,30.47,WSW,237,1.0,2.0,93,0.00,,---,0.00,VWS V14.00,2013-01-19 11:04:00,
2013-01-19 06:09:00,17.6,15.9,30.48,WSW,238,0.0,2.0,93,0.00,,---,0.00,VWS V14.00,2013-01-19 11:09:00,
2013-01-19 07:48:00,16.5,14.6,30.49,WSW,238,0.0,1.0,92,0.00,,---,0.00,VWS V14.00,2013-01-19 12:48:00,
2013-01-19 07:49:00,16.5,14.6,30.48,WSW,238,0.0,1.0,92,0.00,,---,0.00,VWS V14.00,2013-01-19 12:49:00,
2013-01-19 07:51:00,16.5,14.8,30.49,WSW,238,0.0,1.0,93,0.00,,---,0.00,VWS V14.00,2013-01-19 12:51:00,
2013-01-19 07:55:00,16.5,14.8,30.48,WSW,238,0.0,1.0,93,0.00,,---,0.00,VWS V14.00,2013-01-19 12:55:00,
2013-01-19 08:00:00,16.7,15.0,30.49,WSW,238,0.0,1.0,93,0.00,,---,0.00,VWS V14.00,2013-01-19 13:00:00,
2013-01-19 08:05:00,16.7,15.0,30.48,WSW,238,0.0,0.0,93,0.00,,---,0.00,VWS V14.00,2013-01-19 13:05:00,
2013-01-19 08:10:00,16.6,14.9,30.49,WSW,238,0.0,0.0,93,0.00,,---,0.00,VWS V14.00,2013-01-19 13:10:00,
2013-01-19 08:15:00,16.5,14.8,30.49,WSW,238,0.0,0.0,93,0.00,,---,0.00,VWS V14.00,2013-01-19 13:15:00,
2013-01-19 08:21:00,16.4,14.7,30.49,WSW,238,0.0,0.0,93,0.00,,---,0.00,VWS V14.00,2013-01-19 13:21:00,
2013-01-19 08:26:00,16.8,15.1,30.49,WSW,238,0.0,0.0,93,0.00,,---,0.00,VWS V14.00,2013-01-19 13:26:00,
2013-01-19 08:31:00,17.3,15.6,30.49,WSW,238,0.0,1.0,93,0.00,,---,0.00,VWS V14.00,2013-01-19 13:31:00,
2013-01-19 08:36:00,17.8,16.4,30.49,WSW,238,0.0,0.0,94,0.00,,---,0.00,VWS V14.00,2013-01-19 13:36:00,
2013-01-19 08:41:00,18.6,17.2,30.49,WSW,238,0.0,0.0,94,0.00,,---,0.00,VWS V14.00,2013-01-19 13:41:00,
2013-01-19 08:47:00,19.9,18.7,30.49,WSW,238,0.0,1.0,95,0.00,,---,0.00,VWS V14.00,2013-01-19 13:47:00,
2013-01-19 08:52:00,20.7,19.5,30.50,WSW,238,0.0,1.0,95,0.00,,---,0.00,VWS V14.00,2013-01-19 13:52:00,
2013-01-19 08:57:00,21.3,20.1,30.49,WSW,238,0.0,1.0,95,0.00,,---,0.00,VWS V14.00,2013-01-19 13:57:00,
2013-01-19 09:02:00,21.8,20.6,30.50,WSW,238,0.0,0.0,95,0.00,,---,0.00,VWS V14.00,2013-01-19 14:02:00,
2013-01-19 09:07:00,22.5,21.3,30.49,WSW,238,0.0,0.0,95,0.00,,---,0.00,VWS V14.00,2013-01-19 14:07:00,
2013-01-19 09:12:00,23.3,22.1,30.49,WSW,238,0.0,1.0,95,0.00,,---,0.00,VWS V14.00,2013-01-19 14:12:00,
2013-01-19 09:18:00,23.3,21.8,30.50,WSW,238,1.0,2.0,94,0.00,,---,0.00,VWS V14.00,2013-01-19 14:18:00,
2013-01-19 09:23:00,22.9,21.2,30.50,WSW,238,2.0,3.0,93,0.00,,---,0.00,VWS V14.00,2013-01-19 14:23:00,
2013-01-19 09:28:00,22.6,20.9,30.50,WSW,238,2.0,3.0,93,0.00,,---,0.00,VWS V14.00,2013-01-19 14:28:00,
2013-01-19 09:33:00,22.9,21.2,30.50,WSW,238,2.0,4.0,93,0.00,,---,0.00,VWS V14.00,2013-01-19 14:33:00,
2013-01-19 09:38:00,23.1,21.4,30.50,WSW,239,3.0,4.0,93,0.00,,---,0.00,VWS V14.00,2013-01-19 14:38:00,
2013-01-19 09:44:00,23.8,22.3,30.50,WSW,238,3.0,4.0,94,0.00,,---,0.00,VWS V14.00,2013-01-19 14:44:00,
2013-01-19 09:49:00,24.5,23.0,30.50,WSW,241,2.0,4.0,94,0.00,,---,0.00,VWS V14.00,2013-01-19 14:49:00,
2013-01-19 09:54:00,25.1,23.6,30.50,WSW,241,0.0,4.0,94,0.00,,---,0.00,VWS V14.00,2013-01-19 14:54:00,
2013-01-19 09:59:00,25.7,24.2,30.50,WSW,241,2.0,4.0,94,0.00,,---,0.00,VWS V14.00,2013-01-19 14:59:00,
2013-01-19 10:04:00,26.3,24.8,30.50,WSW,241,2.0,3.0,94,0.00,,---,0.00,VWS V14.00,2013-01-19 15:04:00,
2013-01-19 10:10:00,26.9,25.4,30.49,WSW,241,0.0,3.0,94,0.00,,---,0.00,VWS V14.00,2013-01-19 15:10:00,
2013-01-19 10:15:00,27.7,26.2,30.49,WSW,241,0.0,3.0,94,0.00,,---,0.00,VWS V14.00,2013-01-19 15:15:00,
2013-01-19 10:20:00,28.8,27.3,30.49,WSW,241,2.0,3.0,94,0.00,,---,0.00,VWS V14.00,2013-01-19 15:20:00,
2013-01-19 10:25:00,29.8,27.8,30.49,WSW,240,0.0,3.0,92,0.00,,---,0.00,VWS V14.00,2013-01-19 15:25:00,
2013-01-19 10:30:00,30.8,28.2,30.49,WSW,240,0.0,3.0,90,0.01,,---,0.01,VWS V14.00,2013-01-19 15:30:00,
2013-01-19 10:36:00,31.4,28.5,30.48,WSW,240,0.0,2.0,89,0.01,,---,0.01,VWS V14.00,2013-01-19 15:36:00,
2013-01-19 10:41:00,31.9,28.8,30.48,WSW,240,0.0,3.0,88,0.01,,---,0.01,VWS V14.00,2013-01-19 15:41:00,
2013-01-19 10:46:00,32.7,29.5,30.48,WSW,240,1.0,3.0,88,0.01,,---,0.01,VWS V14.00,2013-01-19 15:46:00,
2013-01-19 10:51:00,33.3,29.3,30.48,SW,226,3.0,6.0,85,0.02,,---,0.02,VWS V14.00,2013-01-19 15:51:00,
2013-01-19 10:56:00,33.7,29.4,30.47,SW,223,4.0,6.0,84,0.02,,---,0.02,VWS V14.00,2013-01-19 15:56:00,
2013-01-19 11:01:00,33.7,29.1,30.47,SW,230,4.0,6.0,83,0.02,,---,0.02,VWS V14.00,2013-01-19 16:01:00,
2013-01-19 11:07:00,33.9,29.0,30.47,SW,228,2.0,6.0,82,0.03,,---,0.03,VWS V14.00,2013-01-19 16:07:00,
2013-01-19 11:12:00,34.0,29.1,30.46,SW,232,5.0,7.0,82,0.03,,---,0.03,VWS V14.00,2013-01-19 16:12:00,
2013-01-19 11:17:00,34.3,29.1,30.46,SW,224,6.0,7.0,81,0.04,,---,0.04,VWS V14.00,2013-01-19 16:17:00,
2013-01-19 11:22:00,34.6,29.1,30.45,WSW,243,5.0,8.0,80,0.04,,---,0.04,VWS V14.00,2013-01-19 16:22:00,
2013-01-19 11:27:00,35.0,29.2,30.45,WSW,253,8.0,9.0,79,0.05,,---,0.05,VWS V14.00,2013-01-19 16:27:00,
2013-01-19 11:32:00,35.3,29.1,30.44,WSW,246,4.0,9.0,78,0.05,,---,0.06,VWS V14.00,2013-01-19 16:32:00,
2013-01-19 11:37:00,35.9,29.1,30.44,SW,236,4.0,9.0,76,0.06,,---,0.07,VWS V14.00,2013-01-19 16:37:00,
2013-01-19 11:42:00,36.5,30.0,30.43,WSW,241,5.0,9.0,77,0.06,,---,0.07,VWS V14.00,2013-01-19 16:42:00,
2013-01-19 11:48:00,37.0,30.1,30.43,SW,217,2.0,9.0,76,0.07,,---,0.08,VWS V14.00,2013-01-19 16:48:00,
2013-01-19 11:53:00,37.4,30.2,30.42,SW,222,6.0,9.0,75,0.07,,---,0.08,VWS V14.00,2013-01-19 16:53:00,
2013-01-19 11:58:00,37.5,30.0,30.42,WSW,243,5.0,9.0,74,0.08,,---,0.09,VWS V14.00,2013-01-19 16:58:00,
2013-01-19 12:03:00,37.7,30.2,30.41,SW,234,5.0,6.0,74,0.09,,---,0.11,VWS V14.00,2013-01-19 17:03:00,
2013-01-19 12:08:00,37.7,30.2,30.41,WSW,254,6.0,11.0,74,0.09,,---,0.11,VWS V14.00,2013-01-19 17:08:00,
2013-01-19 12:13:00,37.7,30.2,30.40,WSW,238,7.0,11.0,74,0.10,,---,0.12,VWS V14.00,2013-01-19 17:13:00,
2013-01-19 12:19:00,37.8,30.3,30.40,SW,232,8.0,11.0,74,0.11,,---,0.13,VWS V14.00,2013-01-19 17:19:00,
2013-01-19 12:24:00,38.2,30.7,30.39,WSW,238,5.0,11.0,74,0.12,,---,0.14,VWS V14.00,2013-01-19 17:24:00,
2013-01-19 12:29:00,38.2,30.3,30.39,WSW,255,7.0,11.0,73,0.12,,---,0.14,VWS V14.00,2013-01-19 17:29:00,
2013-01-19 12:35:00,38.2,30.3,30.38,WSW,253,7.0,11.0,73,0.10,,---,0.15,VWS V14.00,2013-01-19 17:35:00,
2013-01-19 12:42:00,38.3,30.4,30.38,WSW,238,4.0,11.0,73,0.11,,---,0.16,VWS V14.00,2013-01-19 17:42:00,
2013-01-19 12:47:00,38.7,30.5,30.37,WSW,241,7.0,11.0,72,0.11,,---,0.16,VWS V14.00,2013-01-19 17:47:00,
2013-01-19 12:52:00,38.9,30.7,30.37,WSW,238,7.0,11.0,72,0.12,,---,0.17,VWS V14.00,2013-01-19 17:52:00,
2013-01-19 12:57:00,39.4,31.1,30.36,SW,235,2.0,11.0,72,0.12,,---,0.17,VWS V14.00,2013-01-19 17:57:00,
2013-01-19 13:02:00,40.1,31.1,30.36,SW,217,6.0,7.0,70,0.08,,---,0.18,VWS V14.00,2013-01-19 18:02:00,
2013-01-19 13:07:00,40.5,30.8,30.35,WSW,237,4.0,9.0,68,0.08,,---,0.18,VWS V14.00,2013-01-19 18:07:00,
2013-01-19 13:13:00,40.9,31.2,30.35,WSW,243,5.0,9.0,68,0.08,,---,0.18,VWS V14.00,2013-01-19 18:13:00,
2013-01-19 13:18:00,41.1,29.9,30.35,SW,231,4.0,9.0,64,0.09,,---,0.19,VWS V14.00,2013-01-19 18:18:00,
2013-01-19 13:23:00,41.2,30.0,30.34,WSW,240,6.0,9.0,64,0.09,,---,0.19,VWS V14.00,2013-01-19 18:23:00,
2013-01-19 13:28:00,41.4,30.1,30.34,WSW,253,8.0,11.0,64,0.09,,---,0.19,VWS V14.00,2013-01-19 18:28:00,
2013-01-19 13:34:00,41.5,29.1,30.34,WSW,249,10.0,12.0,61,0.05,,---,0.20,VWS V14.00,2013-01-19 18:34:00,
2013-01-19 13:39:00,41.8,29.0,30.33,WSW,246,7.0,12.0,60,0.05,,---,0.20,VWS V14.00,2013-01-19 18:39:00,
2013-01-19 13:47:00,42.0,29.1,30.33,WSW,243,8.0,12.0,60,0.06,,---,0.21,VWS V14.00,2013-01-19 18:47:00,
2013-01-19 13:52:00,42.3,29.8,30.33,WSW,255,6.0,12.0,61,0.06,,---,0.21,VWS V14.00,2013-01-19 18:52:00,
2013-01-19 13:57:00,42.9,30.0,30.32,WSW,243,6.0,12.0,60,0.06,,---,0.21,VWS V14.00,2013-01-19 18:57:00,
2013-01-19 14:02:00,43.0,30.5,30.32,West,263,4.0,7.0,61,0.04,,---,0.21,VWS V14.00,2013-01-19 19:02:00,
2013-01-19 14:09:00,43.2,30.3,30.32,West,259,7.0,11.0,60,0.05,,---,0.22,VWS V14.00,2013-01-19 19:09:00,
2013-01-19 14:14:00,43.3,30.0,30.31,WSW,243,6.0,11.0,59,0.05,,---,0.22,VWS V14.00,2013-01-19 19:14:00,
2013-01-19 14:20:00,43.5,30.5,30.31,WSW,249,6.0,11.0,60,0.05,,---,0.22,VWS V14.00,2013-01-19 19:20:00,
2013-01-19 14:25:00,43.6,30.6,30.31,WSW,247,7.0,11.0,60,0.06,,---,0.23,VWS V14.00,2013-01-19 19:25:00,
2013-01-19 14:30:00,43.7,30.3,30.31,WSW,243,6.0,11.0,59,0.06,,---,0.23,VWS V14.00,2013-01-19 19:30:00,
2013-01-19 14:35:00,43.8,29.6,30.31,WSW,244,7.0,9.0,57,0.03,,---,0.23,VWS V14.00,2013-01-19 19:35:00,
2013-01-19 14:41:00,43.9,30.1,30.31,WSW,255,6.0,9.0,58,0.03,,---,0.23,VWS V14.00,2013-01-19 19:41:00,
2013-01-19 14:48:00,44.1,29.9,30.30,West,262,5.0,10.0,57,0.04,,---,0.24,VWS V14.00,2013-01-19 19:48:00,
2013-01-19 14:53:00,44.4,30.6,30.30,SW,234,5.0,10.0,58,0.04,,---,0.24,VWS V14.00,2013-01-19 19:53:00,
2013-01-19 14:59:00,44.7,31.3,30.30,SW,230,4.0,10.0,59,0.04,,---,0.24,VWS V14.00,2013-01-19 19:59:00,
2013-01-19 15:04:00,44.8,31.4,30.30,SW,234,5.0,7.0,59,0.03,,---,0.24,VWS V14.00,2013-01-19 20:04:00,
2013-01-19 15:10:00,45.1,32.1,30.29,WSW,241,4.0,7.0,60,0.04,,---,0.25,VWS V14.00,2013-01-19 20:10:00,
2013-01-19 15:17:00,45.2,32.2,30.29,WSW,240,3.0,8.0,60,0.04,,---,0.25,VWS V14.00,2013-01-19 20:17:00,
2013-01-19 15:22:00,45.4,31.5,30.29,WSW,244,5.0,8.0,58,0.04,,---,0.25,VWS V14.00,2013-01-19 20:22:00,
2013-01-19 15:28:00,45.3,32.7,30.29,WSW,252,3.0,8.0,61,0.04,,---,0.25,VWS V14.00,2013-01-19 20:28:00,
2013-01-19 15:33:00,45.3,32.2,30.28,SW,234,6.0,8.0,60,0.02,,---,0.25,VWS V14.00,2013-01-19 20:33:00,
2013-01-19 15:38:00,45.2,32.2,30.28,WSW,250,3.0,9.0,60,0.02,,---,0.25,VWS V14.00,2013-01-19 20:38:00,
2013-01-19 15:43:00,45.4,32.3,30.28,WSW,244,2.0,9.0,60,0.03,,---,0.26,VWS V14.00,2013-01-19 20:43:00,
2013-01-19 15:48:00,45.6,31.7,30.27,WSW,247,2.0,9.0,58,0.03,,---,0.26,VWS V14.00,2013-01-19 20:48:00,
2013-01-19 15:54:00,45.6,31.3,30.27,WSW,242,4.0,9.0,57,0.03,,---,0.26,VWS V14.00,2013-01-19 20:54:00,
2013-01-19 15:59:00,45.8,31.9,30.27,SW,235,2.0,9.0,58,0.03,,---,0.26,VWS V14.00,2013-01-19 20:59:00,
2013-01-19 16:04:00,45.8,31.5,30.27,SW,233,2.0,6.0,57,0.02,,---,0.26,VWS V14.00,2013-01-19 21:04:00,
2013-01-19 16:10:00,45.5,30.3,30.27,SW,230,7.0,9.0,55,0.02,,---,0.26,VWS V14.00,2013-01-19 21:10:00,
2013-01-19 16:15:00,45.2,30.0,30.27,WSW,241,6.0,9.0,55,0.03,,---,0.27,VWS V14.00,2013-01-19 21:15:00,
2013-01-19 16:20:00,45.0,30.3,30.26,WSW,241,4.0,9.0,56,0.03,,---,0.27,VWS V14.00,2013-01-19 21:20:00,
2013-01-19 16:25:00,45.2,30.5,30.26,WSW,240,4.0,9.0,56,0.03,,---,0.27,VWS V14.00,2013-01-19 21:25:00,
2013-01-19 16:31:00,45.2,30.9,30.26,WSW,240,1.0,9.0,57,0.03,,---,0.27,VWS V14.00,2013-01-19 21:31:00,
2013-01-19 16:36:00,45.5,30.3,30.26,WSW,240,2.0,4.0,55,0.02,,---,0.27,VWS V14.00,2013-01-19 21:36:00,
2013-01-19 16:41:00,45.4,30.6,30.25,WSW,241,1.0,5.0,56,0.02,,---,0.27,VWS V14.00,2013-01-19 21:41:00,
2013-01-19 16:47:00,45.6,30.4,30.25,WSW,240,3.0,5.0,55,0.02,,---,0.27,VWS V14.00,2013-01-19 21:47:00,
2013-01-19 16:52:00,45.4,30.6,30.25,WSW,240,1.0,5.0,56,0.02,,---,0.27,VWS V14.00,2013-01-19 21:52:00,
2013-01-19 16:57:00,45.5,30.7,30.25,WSW,240,1.0,5.0,56,0.02,,---,0.27,VWS V14.00,2013-01-19 21:57:00,
2013-01-19 17:02:00,45.2,29.6,30.25,WSW,240,1.0,2.0,54,0.01,,---,0.27,VWS V14.00,2013-01-19 22:02:00,
2013-01-19 17:08:00,44.1,29.0,30.25,WSW,240,1.0,4.0,55,0.01,,---,0.27,VWS V14.00,2013-01-19 22:08:00,
2013-01-19 17:13:00,43.2,29.0,30.25,WSW,240,0.0,4.0,57,0.01,,---,0.27,VWS V14.00,2013-01-19 22:13:00,
2013-01-19 17:18:00,42.6,28.5,30.25,WSW,240,0.0,4.0,57,0.01,,---,0.27,VWS V14.00,2013-01-19 22:18:00,
2013-01-19 17:23:00,42.0,28.3,30.24,WSW,240,0.0,4.0,58,0.01,,---,0.27,VWS V14.00,2013-01-19 22:23:00,
2013-01-19 17:28:00,41.6,28.4,30.24,WSW,240,0.0,4.0,59,0.01,,---,0.27,VWS V14.00,2013-01-19 22:28:00,
2013-01-19 17:33:00,41.1,28.7,30.24,WSW,240,0.0,0.0,61,0.00,,---,0.27,VWS V14.00,2013-01-19 22:33:00,
2013-01-19 17:39:00,40.3,28.3,30.25,WSW,240,1.0,2.0,62,0.00,,---,0.27,VWS V14.00,2013-01-19 22:39:00,
2013-01-19 17:45:00,39.7,28.1,30.24,WSW,240,0.0,3.0,63,0.00,,---,0.27,VWS V14.00,2013-01-19 22:45:00,
2013-01-19 17:50:00,39.3,28.2,30.24,WSW,240,0.0,3.0,64,0.00,,---,0.27,VWS V14.00,2013-01-19 22:50:00,
2013-01-19 17:55:00,38.9,28.1,30.24,WSW,240,0.0,3.0,65,0.00,,---,0.27,VWS V14.00,2013-01-19 22:55:00,
2013-01-19 18:01:00,38.4,28.0,30.24,WSW,240,0.0,0.0,66,0.00,,---,0.27,VWS V14.00,2013-01-19 23:01:00,
2013-01-19 18:06:00,38.0,28.0,30.24,WSW,240,0.0,0.0,67,0.00,,---,0.27,VWS V14.00,2013-01-19 23:06:00,
2013-01-19 18:12:00,37.5,28.3,30.24,WSW,240,0.0,0.0,69,0.00,,---,0.27,VWS V14.00,2013-01-19 23:12:00,
2013-01-19 18:18:00,36.9,28.0,30.24,WSW,240,0.0,0.0,70,0.00,,---,0.27,VWS V14.00,2013-01-19 23:18:00,
2013-01-19 18:23:00,36.3,28.1,30.24,WSW,240,0.0,1.0,72,0.00,,---,0.27,VWS V14.00,2013-01-19 23:23:00,
2013-01-19 18:29:00,35.8,28.3,30.24,WSW,240,1.0,2.0,74,0.00,,---,0.27,VWS V14.00,2013-01-19 23:29:00,
2013-01-19 18:34:00,35.1,27.7,30.24,WSW,240,0.0,0.0,74,0.00,,---,0.27,VWS V14.00,2013-01-19 23:34:00,
2013-01-19 18:42:00,34.4,27.6,30.24,WSW,240,0.0,1.0,76,0.00,,---,0.27,VWS V14.00,2013-01-19 23:42:00,
2013-01-19 18:48:00,33.8,27.0,30.24,WSW,240,0.0,1.0,76,0.00,,---,0.27,VWS V14.00,2013-01-19 23:48:00,
2013-01-19 18:54:00,33.8,27.0,30.24,WSW,240,0.0,1.0,76,0.00,,---,0.27,VWS V14.00,2013-01-19 23:54:00,
2013-01-19 19:00:00,33.5,27.4,30.24,WSW,240,0.0,1.0,78,0.00,,---,0.27,VWS V14.00,2013-01-20 00:00:00,
2013-01-19 19:05:00,33.2,27.1,30.25,WSW,240,0.0,0.0,78,0.00,,---,0.27,VWS V14.00,2013-01-20 00:05:00,
2013-01-19 19:10:00,32.9,26.8,30.25,WSW,240,0.0,0.0,78,0.00,,---,0.27,VWS V14.00,2013-01-20 00:10:00,
2013-01-19 19:15:00,32.8,27.0,30.25,WSW,240,0.0,0.0,79,0.00,,---,0.27,VWS V14.00,2013-01-20 00:15:00,
2013-01-19 19:21:00,32.8,26.7,30.24,WSW,240,0.0,0.0,78,0.00,,---,0.27,VWS V14.00,2013-01-20 00:21:00,
2013-01-19 19:27:00,32.7,26.3,30.24,WSW,240,0.0,2.0,77,0.00,,---,0.27,VWS V14.00,2013-01-20 00:27:00,
2013-01-19 19:33:00,32.7,26.3,30.24,WSW,240,0.0,0.0,77,0.00,,---,0.27,VWS V14.00,2013-01-20 00:33:00,
2013-01-19 19:38:00,32.6,25.9,30.24,WSW,240,0.0,0.0,76,0.00,,---,0.27,VWS V14.00,2013-01-20 00:38:00,
2013-01-19 19:43:00,32.7,25.7,30.24,WSW,240,0.0,2.0,75,0.00,,---,0.27,VWS V14.00,2013-01-20 00:43:00,
2013-01-19 19:48:00,32.8,25.8,30.24,WSW,240,0.0,2.0,75,0.00,,---,0.27,VWS V14.00,2013-01-20 00:48:00,
2013-01-19 19:56:00,32.8,25.8,30.23,WSW,240,2.0,3.0,75,0.00,,---,0.27,VWS V14.00,2013-01-20 00:56:00,
2013-01-19 20:01:00,32.9,25.9,30.23,WSW,240,1.0,3.0,75,0.00,,---,0.27,VWS V14.00,2013-01-20 01:01:00,
2013-01-19 20:07:00,32.8,26.1,30.23,WSW,240,0.0,3.0,76,0.00,,---,0.27,VWS V14.00,2013-01-20 01:07:00,
2013-01-19 20:12:00,32.9,26.2,30.23,WSW,240,1.0,3.0,76,0.00,,---,0.27,VWS V14.00,2013-01-20 01:12:00,
2013-01-19 20:18:00,32.8,26.1,30.23,WSW,240,0.0,3.0,76,0.00,,---,0.27,VWS V14.00,2013-01-20 01:18:00,
2013-01-19 20:23:00,32.5,26.1,30.23,WSW,240,0.0,3.0,77,0.00,,---,0.27,VWS V14.00,2013-01-20 01:23:00,
2013-01-19 20:28:00,32.3,25.6,30.23,WSW,240,0.0,3.0,76,0.00,,---,0.27,VWS V14.00,2013-01-20 01:28:00,
2013-01-19 20:34:00,32.3,26.2,30.23,WSW,240,0.0,0.0,78,0.00,,---,0.27,VWS V14.00,2013-01-20 01:34:00,
2013-01-19 20:40:00,32.0,26.2,30.23,WSW,240,0.0,0.0,79,0.00,,---,0.27,VWS V14.00,2013-01-20 01:40:00,
2013-01-19 20:45:00,31.6,26.1,30.23,WSW,240,0.0,3.0,80,0.00,,---,0.27,VWS V14.00,2013-01-20 01:45:00,
2013-01-19 20:51:00,31.6,26.1,30.23,WSW,240,0.0,3.0,80,0.00,,---,0.27,VWS V14.00,2013-01-20 01:51:00,
2013-01-19 20:56:00,31.5,26.0,30.23,WSW,240,0.0,3.0,80,0.00,,---,0.27,VWS V14.00,2013-01-20 01:56:00,
2013-01-19 21:01:00,31.5,26.0,30.22,WSW,240,0.0,3.0,80,0.00,,---,0.27,VWS V14.00,2013-01-20 02:01:00,
2013-01-19 21:06:00,31.5,25.8,30.22,WSW,240,0.0,2.0,79,0.00,,---,0.27,VWS V14.00,2013-01-20 02:06:00,
2013-01-19 21:11:00,31.7,25.6,30.22,WSW,240,1.0,2.0,78,0.00,,---,0.27,VWS V14.00,2013-01-20 02:11:00,
2013-01-19 21:17:00,31.6,25.5,30.22,WSW,240,0.0,2.0,78,0.00,,---,0.27,VWS V14.00,2013-01-20 02:17:00,
2013-01-19 21:22:00,31.6,25.2,30.22,WSW,240,0.0,2.0,77,0.00,,---,0.27,VWS V14.00,2013-01-20 02:22:00,
2013-01-19 21:27:00,31.6,25.2,30.22,WSW,240,0.0,2.0,77,0.00,,---,0.27,VWS V14.00,2013-01-20 02:27:00,
2013-01-19 21:33:00,31.4,25.4,30.22,WSW,240,0.0,1.0,78,0.00,,---,0.27,VWS V14.00,2013-01-20 02:33:00,
2013-01-19 21:39:00,31.2,25.5,30.21,WSW,240,1.0,2.0,79,0.00,,---,0.27,VWS V14.00,2013-01-20 02:39:00,
2013-01-19 21:45:00,31.2,25.1,30.21,WSW,240,0.0,2.0,78,0.00,,---,0.27,VWS V14.00,2013-01-20 02:45:00,
2013-01-19 21:50:00,31.1,25.4,30.21,WSW,240,0.0,2.0,79,0.00,,---,0.27,VWS V14.00,2013-01-20 02:50:00,
2013-01-19 21:55:00,31.3,25.6,30.20,WSW,240,3.0,3.0,79,0.00,,---,0.27,VWS V14.00,2013-01-20 02:55:00,
2013-01-19 22:00:00,31.3,25.9,30.20,WSW,240,1.0,3.0,80,0.00,,---,0.27,VWS V14.00,2013-01-20 03:00:00,
2013-01-19 22:05:00,31.4,25.6,30.21,WSW,240,0.0,2.0,79,0.00,,---,0.27,VWS V14.00,2013-01-20 03:05:00,
2013-01-19 22:13:00,31.8,26.0,30.20,WSW,240,0.0,3.0,79,0.00,,---,0.27,VWS V14.00,2013-01-20 03:13:00,
2013-01-19 22:19:00,31.7,25.6,30.20,WSW,240,1.0,3.0,78,0.00,,---,0.27,VWS V14.00,2013-01-20 03:19:00,
2013-01-19 22:27:00,31.5,25.8,30.20,WSW,240,2.0,3.0,79,0.00,,---,0.27,VWS V14.00,2013-01-20 03:27:00,
2013-01-19 22:33:00,31.4,25.6,30.19,WSW,240,0.0,2.0,79,0.00,,---,0.27,VWS V14.00,2013-01-20 03:33:00,
2013-01-19 22:38:00,31.4,25.4,30.19,WSW,240,0.0,2.0,78,0.00,,---,0.27,VWS V14.00,2013-01-20 03:38:00,
2013-01-19 22:44:00,31.3,25.2,30.19,WSW,240,0.0,2.0,78,0.00,,---,0.27,VWS V14.00,2013-01-20 03:44:00,
2013-01-19 22:49:00,31.1,25.4,30.19,WSW,240,3.0,3.0,79,0.00,,---,0.27,VWS V14.00,2013-01-20 03:49:00,
2013-01-19 22:54:00,31.1,25.4,30.18,WSW,240,0.0,4.0,79,0.00,,---,0.27,VWS V14.00,2013-01-20 03:54:00,
2013-01-19 22:59:00,30.8,25.4,30.18,WSW,240,1.0,4.0,80,0.00,,---,0.27,VWS V14.00,2013-01-20 03:59:00,
2013-01-19 23:04:00,30.5,25.4,30.18,WSW,240,4.0,4.0,81,0.00,,---,0.27,VWS V14.00,2013-01-20 04:04:00,
2013-01-19 23:10:00,30.3,25.5,30.18,WSW,240,1.0,4.0,82,0.00,,---,0.27,VWS V14.00,2013-01-20 04:10:00,
2013-01-19 23:15:00,31.2,25.5,30.18,WSW,241,1.0,5.0,79,0.00,,---,0.27,VWS V14.00,2013-01-20 04:15:00,
2013-01-19 23:20:00,32.1,25.1,30.17,WSW,241,1.0,5.0,75,0.00,,---,0.27,VWS V14.00,2013-01-20 04:20:00,
2013-01-19 23:25:00,31.9,25.5,30.17,WSW,241,0.0,5.0,77,0.00,,---,0.27,VWS V14.00,2013-01-20 04:25:00,
2013-01-19 23:31:00,31.6,24.9,30.17,WSW,241,1.0,5.0,76,0.00,,---,0.27,VWS V14.00,2013-01-20 04:31:00,
2013-01-19 23:36:00,32.1,25.1,30.17,WSW,241,0.0,1.0,75,0.00,,---,0.27,VWS V14.00,2013-01-20 04:36:00,
2013-01-19 23:42:00,32.0,25.0,30.17,WSW,241,0.0,3.0,75,0.00,,---,0.27,VWS V14.00,2013-01-20 04:42:00,
2013-01-19 23:48:00,32.6,25.2,30.17,WSW,241,1.0,3.0,74,0.00,,---,0.27,VWS V14.00,2013-01-20 04:48:00,
2013-01-19 23:53:00,32.8,25.1,30.16,WSW,241,1.0,3.0,73,0.00,,---,0.27,VWS V14.00,2013-01-20 04:53:00,
2013-01-19 23:58:00,32.3,25.3,30.16,WSW,241,2.0,4.0,75,0.00,,---,0.27,VWS V14.00,2013-01-20 04:58:00,